UKLU/UDJ METAR and TAF weather

Enter ICAO airport designator
Station Type Date Time Source
UKLU METAR 2021/05/14 11:00 UTC NOAA

UKLU 141100Z 19003G08MPS 9999 SCT040CB 15/09 Q1005 R10/190065 NOSIG


Station Type Date Time Source
UKLU Decoded METAR 2021/05/14 11:00 UTC NOAA

Uzhhorod, Ukraine (UKLU) 48-38-05N 022-15-53E
May 14, 2021 - 07:00 AM EDT / 2021.05.14 1100 UTC
Wind: from the S (190 degrees) at 7 MPH (6 KT) gusting to 18 MPH (16 KT):0
Visibility: greater than 7 mile(s):0
Sky conditions: partly cloudy
Weather: Cumulonimbus clouds observed
Temperature: 59 F (15 C)
Dew Point: 48 F (9 C)
Relative Humidity: 67%
Pressure (altimeter): 29.68 in. Hg (1005 hPa)
ob: UKLU 141100Z 19003G08MPS 9999 SCT040CB 15/09 Q1005 R10/190065 NOSIG
cycle: 11

Station Type Date Time Source
UKLU TAF 2021/04/20 09:15 UTC NOAA

TAF TAF UKLU 200814Z 2009/2021 24003MPS 9999 SCT040
TEMPO 2009/2015 -SHRA SCT030CB PROB40
TEMPO 2009/2015 VRB06G11MPS -TSRA BKN020CB

Example: see airport list